Terminal Aerodrome Forecast
Issued by NWS Charleston, WV

Current Version | Previous Version | Graphics & Text | Print | Product List | Glossary On
Versions: 1 2 3 4 5 6 7 8 9 10 11 12 13 14 15 16 17 18 19 20 21 22
846
FTUS41 KRLX 081730 AAC
TAFBKW
TAF AMD
KBKW 081730Z 0818/0912 30013G22KT P6SM SCT060
     FM090000 30012G22KT P6SM BKN040
     FM090800 30011KT P6SM OVC035=

USA.gov is the U.S. government's official web portal to all federal, state and local government web resources and services.